Gahagan, Louisiana
Current Conditions -  °F | °C
As of 1:35 PM on Friday 24 Oct 2014 (Local Time) from KIER Reporting Station
Clear Clear  
Wind Chill: 73°   Ceiling: Unl
Heat Index: 73°   Visibility: 10mi
Dew Point: 49°   Wind: 5mph
Humidity: 42%   Direction: 320°NW
Pressure: 30.13"   Gusts: NA
Location:  32.1001°N, 93.2912°W
Report Text: KIER 241835Z AUTO 32004KT 10SM CLR 23/10 A3013 RMK AO2 T02300095
Loading
Personal Weather Stations






























Interactive Weather Map
Tropical Storm Tracking
New forecast layout! Learn more

10-Day Weather Forecast

Advertisements
Track Severe Weather on mobile